Time;durP1;ratioP1;P1;durP2;ratioP2;P2;SDS_P1;SDS_P2;PMS_P1;PMS_P2;Temp;Humidity;BMP_temperature;BMP_pressure;BME280_temperature;BME280_humidity;BME280_pressure;Samples;Min_cycle;Max_cycle;Signal;HPM_P1;HPM_P2
2022/03/19 00:02:18;;;;;;;;;5.00;5.00;;;;;25.17;17.83;103034.53;5055999;28;45540;-75
2022/03/19 00:04:44;;;;;;;;;8.00;6.33;;;;;25.15;17.73;103024.59;5060275;28;45634;-75
2022/03/19 00:07:09;;;;;;;;;7.00;5.00;;;;;24.85;17.60;102971.34;5056295;28;45894;-74
2022/03/19 00:09:35;;;;;;;;;2.00;2.00;;;;;25.16;17.56;103034.53;5062276;27;46120;-74
2022/03/19 00:12:00;;;;;;;;;5.00;5.00;;;;;25.09;17.76;103024.59;5061018;27;45532;-75
2022/03/19 00:14:25;;;;;;;;;0.67;0.67;;;;;25.14;17.81;103034.53;5070339;27;45467;-74
2022/03/19 00:16:52;;;;;;;;;5.00;4.00;;;;;24.92;17.72;103012.06;5055606;28;45744;-75
2022/03/19 00:19:18;;;;;;;;;3.00;3.00;;;;;24.99;17.61;103024.69;5066522;28;46462;-74
2022/03/19 00:21:44;;;;;;;;;5.00;5.00;;;;;24.81;17.91;103003.06;5066299;27;45569;-75
2022/03/19 00:24:09;;;;;;;;;4.00;4.00;;;;;24.93;17.61;103019.25;5065006;27;45469;-75
2022/03/19 00:26:35;;;;;;;;;5.33;5.00;;;;;24.97;18.01;103044.59;5064715;27;45751;-75
2022/03/19 00:29:01;;;;;;;;;5.00;4.33;;;;;24.94;17.89;103021.06;5064299;27;45897;-74
2022/03/19 00:31:26;;;;;;;;;5.33;5.00;;;;;25.10;17.77;103037.28;5057444;27;45534;-75
2022/03/19 00:33:53;;;;;;;;;7.33;4.33;;;;;25.00;17.65;103047.28;5058738;28;45422;-75
2022/03/19 00:36:18;;;;;;;;;3.67;3.67;;;;;25.00;17.82;103045.47;5061938;28;45488;-75
2022/03/19 00:38:43;;;;;;;;;4.00;4.00;;;;;24.97;17.87;103041.88;5053113;28;46075;-75
2022/03/19 00:41:09;;;;;;;;;6.00;5.00;;;;;24.90;18.08;103040.13;5078295;27;45452;-75
2022/03/19 00:43:36;;;;;;;;;3.33;3.33;;;;;23.56;17.99;102811.78;5070658;27;45412;-75
2022/03/19 00:46:02;;;;;;;;;4.00;4.00;;;;;24.89;18.10;103043.72;5055697;27;45586;-75
2022/03/19 00:48:27;;;;;;;;;5.00;4.00;;;;;24.86;17.71;103044.63;5059270;28;46098;-74
2022/03/19 00:50:52;;;;;;;;;4.00;4.00;;;;;24.76;17.57;103032.91;5063688;27;45377;-74
2022/03/19 00:53:18;;;;;;;;;8.67;5.67;;;;;24.55;18.16;103004.00;5060079;27;45419;-75
2022/03/19 00:55:43;;;;;;;;;3.00;2.00;;;;;24.54;18.22;103014.88;5063880;27;46011;-75
2022/03/19 00:58:08;;;;;;;;;4.00;4.00;;;;;23.99;18.08;102919.19;5066607;27;45909;-74
2022/03/19 01:00:34;;;;;;;;;5.00;3.00;;;;;24.66;17.91;103006.72;5062045;27;45431;-75
2022/03/19 01:02:59;;;;;;;;;2.33;2.33;;;;;24.73;18.11;103032.03;5065083;28;45998;-75
2022/03/19 01:05:25;;;;;;;;;4.00;4.00;;;;;24.36;17.88;102973.34;5063887;27;45446;-75
2022/03/19 01:07:53;;;;;;;;;5.00;3.67;;;;;24.55;17.96;103025.72;5060991;27;45800;-74
2022/03/19 01:10:25;;;;;;;;;4.00;4.00;;;;;24.59;18.04;103027.53;5057461;28;45469;-74
2022/03/19 01:12:51;;;;;;;;;3.67;3.33;;;;;24.45;17.94;103011.28;5065947;28;45402;-74
2022/03/19 01:15:17;;;;;;;;;4.00;4.00;;;;;24.65;17.85;103030.28;5057571;28;45815;-75
2022/03/19 01:17:43;;;;;;;;;4.00;4.00;;;;;24.55;17.81;103017.59;5056307;28;46216;-74
2022/03/19 01:20:10;;;;;;;;;5.00;3.33;;;;;24.38;17.61;102973.34;5068581;27;45807;-74
2022/03/19 01:22:38;;;;;;;;;3.00;3.00;;;;;24.57;17.84;103010.34;5075724;27;45796;-74
2022/03/19 01:25:05;;;;;;;;;3.00;3.00;;;;;24.32;17.95;102975.16;5061548;28;45801;-74
2022/03/19 01:27:35;;;;;;;;;5.00;3.00;;;;;24.41;17.88;103016.72;5062335;28;46167;-74
2022/03/19 01:30:00;;;;;;;;;4.00;4.00;;;;;24.30;18.02;103009.53;5061081;28;45863;-75
2022/03/19 01:32:26;;;;;;;;;5.00;3.00;;;;;24.05;17.96;102967.09;5065055;28;45498;-74
2022/03/19 01:34:53;;;;;;;;;4.33;3.00;;;;;24.18;18.01;102990.56;5066074;27;46428;-74
2022/03/19 01:37:19;;;;;;;;;2.33;2.00;;;;;24.16;17.69;103003.22;5062665;27;47349;-74
2022/03/19 01:39:44;;;;;;;;;2.67;2.67;;;;;23.78;17.82;102923.75;5062586;28;45798;-75
2022/03/19 01:42:10;;;;;;;;;3.00;3.00;;;;;24.27;17.91;103006.81;5061777;27;45361;-74
2022/03/19 01:44:35;;;;;;;;;4.00;4.00;;;;;24.09;17.75;102958.97;5068055;27;45793;-74
2022/03/19 01:47:03;;;;;;;;;2.00;2.00;;;;;24.26;17.66;102987.81;5082465;27;46167;-74
2022/03/19 01:49:30;;;;;;;;;3.00;3.00;;;;;24.01;17.82;102960.78;5062877;27;45531;-75
2022/03/19 01:51:56;;;;;;;;;4.33;3.67;;;;;24.26;18.09;102994.19;5067353;27;45472;-75
2022/03/19 01:54:28;;;;;;;;;7.00;7.00;;;;;24.11;17.78;102964.38;5059857;27;45721;-74
2022/03/19 01:56:55;;;;;;;;;3.67;3.67;;;;;24.12;18.10;102977.94;5071458;27;47308;-74
2022/03/19 01:59:26;;;;;;;;;5.00;2.67;;;;;24.05;17.94;102953.53;5067347;28;45395;-74
2022/03/19 02:01:53;;;;;;;;;2.00;2.00;;;;;24.22;17.82;102986.94;5072265;27;46336;-75
2022/03/19 02:04:19;;;;;;;;;3.67;3.67;;;;;24.12;18.17;102985.16;5066289;27;45490;-75
2022/03/19 02:06:46;;;;;;;;;0.00;0.00;;;;;23.95;18.26;102959.00;5067846;27;46092;-75
2022/03/19 02:09:11;;;;;;;;;4.00;3.00;;;;;24.02;17.92;102973.44;5064595;28;45456;-75
2022/03/19 02:11:37;;;;;;;;;8.00;4.00;;;;;24.06;18.05;102974.31;5069776;28;45527;-75
2022/03/19 02:14:03;;;;;;;;;5.00;4.00;;;;;24.04;17.85;102976.16;5075187;27;45344;-75
2022/03/19 02:16:29;;;;;;;;;3.00;3.00;;;;;23.86;18.31;102956.25;5077757;27;45396;-75
2022/03/19 02:18:57;;;;;;;;;3.67;3.67;;;;;24.06;18.01;102985.16;5077008;28;45417;-76
2022/03/19 02:21:22;;;;;;;;;3.00;3.00;;;;;24.00;18.18;102971.63;5077747;27;46094;-75
2022/03/19 02:26:45;;;;;;;;;3.00;3.00;;;;;24.12;17.68;102975.22;5077779;27;45368;-75
2022/03/19 02:29:11;;;;;;;;;3.00;2.67;;;;;24.01;18.19;102965.28;5076393;28;45387;-76
2022/03/19 02:31:40;;;;;;;;;4.33;3.00;;;;;24.19;18.21;102964.34;5077564;27;45355;-75
2022/03/19 02:34:08;;;;;;;;;4.00;4.00;;;;;23.87;18.29;102914.72;5077521;27;45379;-75
2022/03/19 02:36:35;;;;;;;;;3.67;3.67;;;;;24.19;17.86;102959.84;5077143;27;46224;-75
2022/03/19 02:39:11;;;;;;;;;4.00;4.00;;;;;24.20;17.76;102950.78;5077299;27;45524;-76
2022/03/19 02:41:41;;;;;;;;;3.00;2.00;;;;;24.19;18.17;102959.84;5057502;28;45412;-75
2022/03/19 02:44:06;;;;;;;;;4.00;3.00;;;;;24.18;18.30;102960.75;5057128;28;45369;-76
2022/03/19 02:46:40;;;;;;;;;3.00;3.00;;;;;24.21;18.03;102962.53;5057183;28;46042;-75
2022/03/19 02:49:06;;;;;;;;;4.67;4.67;;;;;24.12;18.30;102966.16;5073338;28;45338;-75
2022/03/19 02:51:40;;;;;;;;;5.00;4.00;;;;;23.92;18.10;102928.25;5077036;28;45542;-75
2022/03/19 02:54:08;;;;;;;;;7.67;4.00;;;;;24.13;18.25;102955.34;5077328;27;45458;-75
2022/03/19 02:56:35;;;;;;;;;3.00;3.00;;;;;24.03;18.20;102941.81;5077199;27;45462;-75
2022/03/19 02:59:12;;;;;;;;;6.33;4.00;;;;;24.10;18.25;102960.75;5075818;28;45965;-75
2022/03/19 03:01:41;;;;;;;;;5.33;3.00;;;;;23.99;18.62;102957.16;5077278;27;45344;-75
2022/03/19 03:04:07;;;;;;;;;5.00;3.00;;;;;23.91;18.58;102938.22;5077106;27;45561;-74
2022/03/19 03:06:36;;;;;;;;;8.33;6.00;;;;;23.75;18.86;102926.44;5076696;27;45542;-75
2022/03/19 03:09:03;;;;;;;;;4.00;4.00;;;;;23.89;18.60;102948.13;5077105;28;45363;-76
2022/03/19 03:11:29;;;;;;;;;4.00;4.00;;;;;23.80;18.61;102950.84;5077525;27;45353;-76
2022/03/19 03:13:54;;;;;;;;;5.00;5.00;;;;;23.70;18.79;102927.34;5076541;27;45376;-76
2022/03/19 03:16:20;;;;;;;;;4.00;4.00;;;;;23.42;18.98;102890.34;5066528;27;45414;-77
2022/03/19 03:18:46;;;;;;;;;10.33;5.33;;;;;23.81;18.73;102947.22;5067674;27;45413;-75
2022/03/19 03:21:12;;;;;;;;;3.33;3.33;;;;;23.36;18.93;102867.78;5068068;27;45444;-76
2022/03/19 03:23:37;;;;;;;;;4.33;4.33;;;;;23.83;18.59;102939.09;5071580;27;45459;-75
2022/03/19 03:26:02;;;;;;;;;6.33;5.67;;;;;23.80;18.30;102924.63;5069905;27;45442;-75
2022/03/19 03:28:28;;;;;;;;;5.00;5.00;;;;;23.83;18.82;102917.41;5066495;27;45578;-75
2022/03/19 03:30:53;;;;;;;;;6.00;5.00;;;;;23.72;18.91;102922.84;5057927;27;45412;-76
2022/03/19 03:33:19;;;;;;;;;5.00;5.00;;;;;23.29;19.07;102867.81;5070893;27;45943;-75
2022/03/19 03:35:44;;;;;;;;;6.67;6.67;;;;;23.47;19.01;102920.16;5060603;27;46217;-76
2022/03/19 03:38:10;;;;;;;;;5.00;5.00;;;;;23.46;18.87;102913.84;5063220;27;45786;-75
2022/03/19 03:40:35;;;;;;;;;7.00;7.00;;;;;23.57;19.14;102921.97;5055815;27;45548;-75
2022/03/19 03:43:01;;;;;;;;;5.33;5.33;;;;;23.58;18.77;102909.31;5074862;27;45795;-75
2022/03/19 03:45:30;;;;;;;;;9.67;7.00;;;;;23.58;19.10;102910.19;5055229;27;45448;-75
2022/03/19 03:47:56;;;;;;;;;11.00;8.00;;;;;23.21;19.24;102864.19;5055633;27;45407;-75
2022/03/19 03:50:21;;;;;;;;;9.00;7.00;;;;;23.19;19.20;102862.38;5071142;27;45514;-75
2022/03/19 03:52:47;;;;;;;;;9.67;7.67;;;;;23.25;19.04;102862.41;5069808;28;45539;-75
2022/03/19 03:55:13;;;;;;;;;9.00;8.33;;;;;23.55;19.12;102909.31;5061462;27;45857;-74
2022/03/19 03:57:39;;;;;;;;;8.33;8.33;;;;;23.33;19.02;102873.22;5071368;27;45764;-76
2022/03/19 04:00:08;;;;;;;;;9.33;7.00;;;;;23.67;18.75;102914.72;5076360;27;45451;-78
2022/03/19 04:02:34;;;;;;;;;8.33;7.00;;;;;23.71;18.76;102912.91;5087413;27;45408;-74
2022/03/19 04:04:59;;;;;;;;;12.67;9.67;;;;;23.28;19.32;102881.34;5090808;27;45373;-78
2022/03/19 04:07:24;;;;;;;;;10.00;7.67;;;;;23.51;19.24;102923.78;5094871;27;52204;-76
2022/03/19 04:09:50;;;;;;;;;8.33;7.33;;;;;23.49;19.13;102918.34;5064420;27;45194;-75
2022/03/19 04:12:15;;;;;;;;;10.00;9.67;;;;;23.46;19.15;102918.38;5065767;27;45518;-73
2022/03/19 04:14:41;;;;;;;;;11.33;9.00;;;;;23.43;19.35;102912.94;5095893;27;45360;-74
2022/03/19 04:17:07;;;;;;;;;9.00;9.00;;;;;23.38;19.22;102917.47;5090160;27;45482;-75
2022/03/19 04:19:33;;;;;;;;;7.33;7.33;;;;;23.35;19.52;102901.22;5081008;27;45708;-74
2022/03/19 04:21:58;;;;;;;;;9.33;8.33;;;;;23.35;19.54;102912.06;5076016;28;45527;-74
2022/03/19 04:24:25;;;;;;;;;8.00;8.00;;;;;23.31;19.41;102903.00;5075504;27;46043;-74
2022/03/19 04:26:51;;;;;;;;;5.00;5.00;;;;;23.27;19.32;102899.38;5075765;27;45355;-74
2022/03/19 04:29:16;;;;;;;;;12.67;9.00;;;;;23.25;19.32;102903.91;5075972;28;45509;-74
2022/03/19 04:31:42;;;;;;;;;13.67;10.00;;;;;23.32;19.44;102926.50;5084883;27;45247;-74
2022/03/19 04:34:07;;;;;;;;;9.67;9.67;;;;;23.26;19.84;102921.97;5074644;27;46026;-74
2022/03/19 04:36:41;;;;;;;;;9.00;8.00;;;;;23.23;19.64;102911.13;5073803;28;45496;-74
2022/03/19 04:39:08;;;;;;;;;10.33;8.33;;;;;23.31;19.89;102915.66;5075817;27;45407;-75
2022/03/19 04:41:36;;;;;;;;;13.33;10.00;;;;;23.22;19.80;102906.63;5075483;27;45432;-74
2022/03/19 04:44:02;;;;;;;;;12.00;9.00;;;;;23.26;20.05;102916.56;5075547;27;45291;-73
2022/03/19 04:46:28;;;;;;;;;14.67;13.00;;;;;23.28;19.79;102920.16;5075040;27;45423;-74
2022/03/19 04:48:53;;;;;;;;;15.67;14.00;;;;;23.31;19.95;102919.25;5075687;27;45394;-74
2022/03/19 04:51:21;;;;;;;;;13.33;12.00;;;;;23.27;19.89;102909.31;5075640;27;45515;-74
2022/03/19 04:53:50;;;;;;;;;14.00;11.33;;;;;23.35;19.87;102917.47;5076324;27;46030;-74
2022/03/19 04:56:22;;;;;;;;;12.67;12.33;;;;;23.23;19.82;102913.81;5083573;27;45524;-74
2022/03/19 04:58:49;;;;;;;;;13.33;13.33;;;;;23.12;20.13;102894.88;5079047;27;45308;-74
2022/03/19 05:01:16;;;;;;;;;21.33;18.67;;;;;23.16;20.30;102912.00;5078859;27;45537;-74
2022/03/19 05:03:41;;;;;;;;;18.67;15.67;;;;;22.96;20.17;102874.06;5078490;27;46373;-74
2022/03/19 05:06:06;;;;;;;;;18.00;14.67;;;;;23.12;20.32;102905.72;5078670;27;45410;-74
2022/03/19 05:08:32;;;;;;;;;17.33;14.67;;;;;23.03;20.25;102872.28;5081795;27;45484;-74
2022/03/19 05:11:12;;;;;;;;;13.00;12.67;;;;;23.10;20.49;102896.63;5099450;27;45421;-73
2022/03/19 05:13:38;;;;;;;;;12.33;10.67;;;;;23.11;20.29;102892.16;5080474;27;45408;-74
2022/03/19 05:16:04;;;;;;;;;20.67;16.67;;;;;23.25;20.33;102897.59;5078747;27;45459;-75
2022/03/19 05:18:29;;;;;;;;;11.67;9.67;;;;;23.08;20.27;102884.00;5078483;27;45674;-74
2022/03/19 05:20:56;;;;;;;;;17.67;13.67;;;;;23.20;20.39;102910.22;5078402;27;45332;-74
2022/03/19 05:23:23;;;;;;;;;20.00;15.67;;;;;23.22;20.40;102912.03;5078759;27;45565;-73
2022/03/19 05:25:48;;;;;;;;;17.67;16.00;;;;;23.28;20.37;102919.25;5078364;27;45336;-74
2022/03/19 05:28:13;;;;;;;;;19.33;17.67;;;;;23.26;20.44;102913.84;5078701;27;45624;-74
2022/03/19 05:30:39;;;;;;;;;21.33;19.00;;;;;23.23;20.63;102908.41;5078242;28;45474;-74
2022/03/19 05:33:05;;;;;;;;;21.67;17.67;;;;;22.94;20.65;102882.19;5078510;27;45291;-75
2022/03/19 05:35:31;;;;;;;;;20.67;18.67;;;;;23.05;20.79;102912.00;5078439;27;45445;-75
2022/03/19 05:37:59;;;;;;;;;19.33;15.67;;;;;23.01;20.69;102904.78;5078690;27;45315;-74
2022/03/19 05:40:25;;;;;;;;;16.33;13.67;;;;;23.15;20.77;102902.13;5078704;27;45396;-74
2022/03/19 05:42:50;;;;;;;;;22.33;21.00;;;;;23.07;20.43;102876.78;5077788;27;45532;-74
2022/03/19 05:45:16;;;;;;;;;25.67;22.00;;;;;22.90;20.76;102866.84;5076951;28;45624;-74
2022/03/19 05:47:43;;;;;;;;;23.67;20.33;;;;;22.99;21.00;102909.25;5078235;27;45375;-74
2022/03/19 05:50:09;;;;;;;;;33.67;27.67;;;;;22.88;21.19;102886.69;5078611;27;45545;-74
2022/03/19 05:52:34;;;;;;;;;23.67;22.00;;;;;23.02;20.95;102911.97;5077978;27;45904;-75
2022/03/19 05:54:59;;;;;;;;;20.33;19.00;;;;;23.01;20.89;102910.19;5072092;27;45533;-74
2022/03/19 05:57:25;;;;;;;;;22.33;18.33;;;;;22.75;21.04;102858.72;5058238;28;45339;-74
2022/03/19 05:59:50;;;;;;;;;21.67;21.00;;;;;23.06;21.27;102915.59;5079259;27;45373;-74
2022/03/19 06:02:15;;;;;;;;;26.00;21.00;;;;;23.09;20.98;102907.47;5078295;27;45970;-74
2022/03/19 06:04:41;;;;;;;;;23.33;20.33;;;;;23.00;21.08;102913.78;5077770;27;45469;-74
2022/03/19 06:07:06;;;;;;;;;23.67;20.33;;;;;23.03;21.29;102897.53;5078144;27;45458;-75
2022/03/19 06:09:32;;;;;;;;;31.00;23.33;;;;;22.96;21.38;102914.69;5077879;28;45360;-75
2022/03/19 06:11:57;;;;;;;;;23.33;19.33;;;;;22.11;21.71;102771.09;5072147;27;45317;-74
2022/03/19 06:14:23;;;;;;;;;17.67;13.67;;;;;22.98;21.41;102914.69;5076405;28;45586;-73
2022/03/19 06:16:49;;;;;;;;;27.00;24.00;;;;;22.94;21.67;102886.72;5077738;27;45571;-75
2022/03/19 06:19:15;;;;;;;;;27.00;22.67;;;;;22.95;21.26;102892.13;5078244;27;45550;-74
2022/03/19 06:21:42;;;;;;;;;23.67;22.00;;;;;23.11;21.50;102902.97;5077185;27;46217;-73
2022/03/19 06:24:09;;;;;;;;;27.67;25.00;;;;;23.14;21.50;102919.25;5077696;28;45398;-75
2022/03/19 06:26:35;;;;;;;;;32.00;27.00;;;;;23.08;21.46;102908.34;5077877;27;45429;-75
2022/03/19 06:29:01;;;;;;;;;31.00;25.33;;;;;22.71;21.48;102851.47;5062390;27;45379;-73
2022/03/19 06:31:27;;;;;;;;;30.67;29.00;;;;;23.10;21.44;102923.72;5057459;28;45380;-76
2022/03/19 06:33:52;;;;;;;;;29.00;24.67;;;;;23.00;21.40;102888.53;5057204;28;45419;-73
2022/03/19 06:39:02;;;;;;;;;27.33;24.00;;;;;23.32;21.42;102921.06;5073040;28;45377;-74
2022/03/19 06:41:28;;;;;;;;;35.00;33.33;;;;;23.29;21.34;102918.38;5077428;27;45336;-73
2022/03/19 06:43:53;;;;;;;;;27.00;26.00;;;;;23.30;21.63;102917.44;5076968;27;45431;-73
2022/03/19 06:46:19;;;;;;;;;36.67;26.33;;;;;23.45;21.37;102913.84;5077461;27;45266;-73
2022/03/19 06:48:46;;;;;;;;;29.67;26.00;;;;;23.44;21.38;102904.78;5077316;27;45571;-73
2022/03/19 06:51:12;;;;;;;;;35.00;31.67;;;;;23.54;21.36;102926.47;5077470;27;45395;-73
2022/03/19 06:53:38;;;;;;;;;31.67;26.67;;;;;23.21;21.44;102869.59;5075950;28;45468;-74
2022/03/19 06:56:05;;;;;;;;;35.33;31.33;;;;;23.54;21.40;102921.94;5072169;28;45337;-73
2022/03/19 06:58:32;;;;;;;;;33.33;30.67;;;;;23.32;21.48;102882.22;5056707;28;45502;-73
2022/03/19 07:00:57;;;;;;;;;35.33;29.33;;;;;23.31;21.42;102881.34;5056429;28;45725;-73
2022/03/19 07:03:23;;;;;;;;;40.00;35.33;;;;;23.61;21.46;102929.19;5056919;28;45305;-73
2022/03/19 07:05:49;;;;;;;;;43.33;36.00;;;;;23.58;21.53;102893.94;5076374;27;45317;-74
2022/03/19 07:08:14;;;;;;;;;37.67;32.00;;;;;23.62;21.73;102909.28;5077066;28;45403;-73
2022/03/19 07:10:40;;;;;;;;;30.33;27.67;;;;;23.64;21.75;102912.94;5058232;27;48538;-74
2022/03/19 07:13:06;;;;;;;;;38.67;33.67;;;;;23.47;21.55;102882.22;5067608;28;45637;-74
2022/03/19 07:15:31;;;;;;;;;40.67;35.00;;;;;23.70;21.66;102913.81;5076108;27;45340;-73
2022/03/19 07:18:00;;;;;;;;;35.00;35.00;;;;;23.72;21.65;102917.44;5075438;28;45274;-74
2022/03/19 07:20:25;;;;;;;;;42.67;35.33;;;;;23.71;21.49;102902.06;5076425;27;46088;-80
2022/03/19 07:22:58;;;;;;;;;49.00;38.33;;;;;23.93;21.56;102930.97;5076575;28;45324;-79
2022/03/19 07:25:34;;;;;;;;;49.33;39.00;;;;;24.00;21.59;102918.31;5075557;28;45540;-79
2022/03/19 07:28:09;;;;;;;;;50.67;41.00;;;;;23.77;21.31;102874.97;5060398;27;45298;-79
2022/03/19 07:30:35;;;;;;;;;47.00;40.33;;;;;23.84;21.51;102871.34;5056790;28;45487;-83
2022/03/19 07:33:01;;;;;;;;;51.67;38.67;;;;;24.16;21.75;102916.44;5054679;28;45594;-83
2022/03/19 07:35:27;;;;;;;;;47.00;38.00;;;;;24.12;21.71;102918.28;5057008;27;45360;-82
2022/03/19 07:37:53;;;;;;;;;43.33;37.67;;;;;24.26;21.36;102920.94;5097210;27;45369;-83
2022/03/19 07:43:06;;;;;;;;;44.00;38.33;;;;;24.01;21.47;102851.41;5096569;27;45400;-83
2022/03/19 07:45:31;;;;;;;;;44.33;38.00;;;;;24.29;21.39;102885.66;5080875;27;45409;-83
2022/03/19 07:47:58;;;;;;;;;50.00;40.67;;;;;24.45;21.45;102912.72;5056308;27;45369;-84
2022/03/19 07:50:23;;;;;;;;;51.33;40.00;;;;;24.46;21.45;102909.09;5073695;27;45468;-85
2022/03/19 07:52:49;;;;;;;;;52.33;42.00;;;;;23.93;21.87;102824.34;5076413;27;45285;-81
2022/03/19 07:55:14;;;;;;;;;50.00;41.00;;;;;24.31;21.35;102866.66;5076035;28;45445;-85
2022/03/19 07:57:40;;;;;;;;;53.33;42.00;;;;;24.33;21.28;102864.81;5076404;27;45396;-86
2022/03/19 08:00:05;;;;;;;;;53.67;42.33;;;;;24.60;21.72;102922.59;5075974;27;45426;-82
2022/03/19 08:02:31;;;;;;;;;54.33;43.00;;;;;24.36;21.32;102835.00;5076207;27;45421;-83
2022/03/19 08:04:58;;;;;;;;;56.67;44.67;;;;;24.71;21.41;102890.91;5074602;28;45776;-82
2022/03/19 08:07:23;;;;;;;;;48.67;42.00;;;;;24.17;21.54;102771.78;5074495;28;45436;-82
2022/03/19 08:09:49;;;;;;;;;53.33;42.00;;;;;24.91;21.56;102895.28;5074922;28;45421;-83
2022/03/19 08:12:14;;;;;;;;;54.00;42.67;;;;;24.09;21.47;102752.88;5076130;27;45304;-84
2022/03/19 08:14:40;;;;;;;;;61.67;49.00;;;;;24.97;21.65;102907.00;5079158;27;45442;-81
2022/03/19 08:17:05;;;;;;;;;53.33;42.67;;;;;23.91;21.92;102751.16;5079881;27;45244;-82
2022/03/19 08:19:31;;;;;;;;;54.00;41.67;;;;;24.50;21.89;102815.91;5075043;27;46331;-81
2022/03/19 08:21:56;;;;;;;;;60.00;49.00;;;;;25.18;21.21;102911.38;5074987;27;45385;-80
2022/03/19 08:24:25;;;;;;;;;55.33;45.33;;;;;24.71;21.27;102805.84;5076303;27;45364;-79
2022/03/19 08:26:52;;;;;;;;;59.75;46.25;;;;;25.20;21.19;102883.28;5073294;27;45443;-79
2022/03/19 08:29:17;;;;;;;;;53.67;44.33;;;;;25.32;21.65;102897.72;5067944;28;48417;-80
2022/03/19 08:31:42;;;;;;;;;60.33;47.67;;;;;25.13;21.55;102858.91;5055339;28;45266;-80
2022/03/19 08:34:08;;;;;;;;;65.67;50.00;;;;;25.50;21.13;102901.19;5055255;28;45463;-81
2022/03/19 08:36:33;;;;;;;;;57.33;47.33;;;;;25.36;21.53;102870.50;5053763;28;45369;-79
2022/03/19 08:41:59;;;;;;;;;60.33;48.00;;;;;25.77;21.28;102896.38;5024035;28;45510;-79
2022/03/19 08:44:25;;;;;;;;;65.75;50.00;;;;;25.77;21.01;102899.09;5022325;28;45426;-78
2022/03/19 08:46:51;;;;;;;;;55.67;44.33;;;;;25.55;21.18;102852.22;5032540;28;45468;-82
2022/03/19 08:49:16;;;;;;;;;60.00;48.00;;;;;25.88;20.92;102897.16;5022602;28;47038;-83
2022/03/19 08:51:42;;;;;;;;;62.33;47.33;;;;;25.70;20.73;102862.03;5029450;28;45413;-82
2022/03/19 08:54:08;;;;;;;;;60.50;48.50;;;;;25.80;20.93;102893.63;5039061;28;45315;-83
2022/03/19 08:56:35;;;;;;;;;65.00;47.00;;;;;25.96;21.02;102889.81;5052984;28;45508;-81
2022/03/19 08:59:02;;;;;;;;;67.75;51.00;;;;;25.63;20.37;102821.31;5052328;28;47348;-81
2022/03/19 09:01:27;;;;;;;;;51.33;41.00;;;;;25.93;20.40;102870.81;5040375;28;45556;-81
2022/03/19 09:03:53;;;;;;;;;56.33;46.00;;;;;26.14;20.24;102893.25;5032598;28;45849;-80
2022/03/19 09:06:19;;;;;;;;;63.00;50.00;;;;;26.01;20.35;102877.09;5031605;28;45550;-80
2022/03/19 09:08:45;;;;;;;;;56.00;45.33;;;;;26.02;20.51;102880.72;5031542;28;45852;-80
2022/03/19 09:11:11;;;;;;;;;59.33;48.00;;;;;25.92;20.23;102838.19;5032214;28;45806;-81
2022/03/19 09:13:36;;;;;;;;;50.67;41.67;;;;;25.95;20.26;102839.06;5032000;28;45429;-82
2022/03/19 09:16:03;;;;;;;;;57.67;45.33;;;;;26.02;20.15;102829.94;5055218;27;45739;-80
2022/03/19 09:18:29;;;;;;;;;58.33;49.00;;;;;26.27;20.15;102855.91;5086654;27;45593;-79
2022/03/19 09:20:55;;;;;;;;;58.67;46.00;;;;;26.33;19.80;102867.63;5057308;27;45575;-81
2022/03/19 09:23:20;;;;;;;;;50.00;41.00;;;;;26.40;19.90;102867.53;5053608;28;46338;-81
2022/03/19 09:25:45;;;;;;;;;61.00;47.67;;;;;26.38;20.45;102867.53;5059339;27;45356;-76
2022/03/19 09:28:10;;;;;;;;;58.00;44.67;;;;;26.41;20.15;102853.88;5065170;27;45930;-81
2022/03/19 09:30:36;;;;;;;;;59.67;47.00;;;;;26.60;20.16;102867.25;5062916;27;45566;-79
2022/03/19 09:33:01;;;;;;;;;54.00;43.00;;;;;26.43;19.86;102813.97;5055349;27;45871;-79
2022/03/19 09:35:27;;;;;;;;;51.00;40.00;;;;;26.66;20.02;102880.78;5067628;27;45906;-77
2022/03/19 09:37:52;;;;;;;;;57.67;45.33;;;;;26.73;19.57;102870.72;5060745;27;45491;-78
2022/03/19 09:40:19;;;;;;;;;58.00;47.00;;;;;26.28;19.74;102815.06;5059553;28;45484;-78
2022/03/19 09:42:49;;;;;;;;;56.00;43.33;;;;;26.65;19.76;102878.97;5066298;27;45587;-79
2022/03/19 09:45:18;;;;;;;;;57.33;45.33;;;;;26.46;19.71;102823.91;5068738;27;45633;-78
2022/03/19 09:47:43;;;;;;;;;56.00;46.33;;;;;26.55;19.83;102834.63;5062807;27;45533;-78
2022/03/19 09:50:09;;;;;;;;;56.33;43.67;;;;;26.60;19.38;102815.53;5057950;27;45570;-79
2022/03/19 09:52:36;;;;;;;;;62.00;49.00;;;;;26.90;19.30;102860.44;5055964;28;45528;-78
2022/03/19 09:55:02;;;;;;;;;60.75;48.25;;;;;26.43;19.54;102785.84;5062460;28;45650;-78
2022/03/19 09:57:27;;;;;;;;;58.00;46.33;;;;;26.94;19.50;102848.59;5057653;27;45497;-77
2022/03/19 09:59:53;;;;;;;;;52.33;43.67;;;;;27.09;19.28;102857.41;5069515;27;45938;-77
2022/03/19 10:02:18;;;;;;;;;55.00;44.33;;;;;27.12;19.32;102846.50;5064247;27;46000;-77
2022/03/19 10:04:44;;;;;;;;;59.33;46.00;;;;;27.01;19.31;102828.47;5068850;27;45913;-77
2022/03/19 10:09:56;;;;;;;;;54.67;45.00;;;;;26.91;19.10;102787.84;5057659;28;45368;-77
2022/03/19 10:12:25;;;;;;;;;55.00;46.00;;;;;26.91;18.66;102798.72;5057757;28;45823;-77
2022/03/19 10:14:56;;;;;;;;;54.33;44.00;;;;;27.27;18.87;102846.22;5066397;27;45788;-77
2022/03/19 10:17:32;;;;;;;;;50.33;43.00;;;;;27.27;18.97;102808.06;5052600;27;45434;-77
2022/03/19 10:20:06;;;;;;;;;55.00;45.00;;;;;27.39;18.70;102835.09;5057902;27;45561;-77
2022/03/19 10:22:32;;;;;;;;;54.33;42.33;;;;;27.51;18.83;102836.72;5064588;27;45608;-77
2022/03/19 10:25:06;;;;;;;;;54.67;44.67;;;;;27.25;18.78;102799.00;5054772;27;45768;-76
2022/03/19 10:27:37;;;;;;;;;54.33;44.67;;;;;27.45;18.88;102811.38;5064514;27;46633;-77
2022/03/19 10:30:06;;;;;;;;;53.00;43.33;;;;;27.46;18.49;102818.66;5060285;27;45447;-76
2022/03/19 10:32:31;;;;;;;;;52.67;44.33;;;;;27.17;18.49;102762.81;5056345;27;45496;-75
2022/03/19 10:34:57;;;;;;;;;55.33;45.67;;;;;27.49;18.77;102800.38;5055313;28;45526;-75
2022/03/19 10:37:38;;;;;;;;;56.00;44.67;;;;;27.28;18.49;102766.22;5068595;27;45942;-77
2022/03/19 10:40:05;;;;;;;;;60.67;47.00;;;;;27.41;18.17;102813.25;5095570;27;45691;-76
2022/03/19 10:42:41;;;;;;;;;56.33;45.33;;;;;27.51;18.42;102789.44;5064433;27;46343;-78
2022/03/19 10:45:14;;;;;;;;;55.33;43.33;;;;;27.56;18.09;102799.34;5065180;28;45407;-78
2022/03/19 10:47:44;;;;;;;;;43.33;37.67;;;;;27.60;18.37;102770.19;5070258;27;45915;-79
2022/03/19 10:50:16;;;;;;;;;49.67;39.67;;;;;27.49;18.32;102736.81;5067894;27;45871;-79
2022/03/19 10:52:42;;;;;;;;;58.33;44.33;;;;;27.77;18.28;102777.13;5067907;27;45959;-78
2022/03/19 10:55:08;;;;;;;;;50.00;39.67;;;;;27.51;18.14;102724.03;5058300;27;45478;-79
2022/03/19 10:57:35;;;;;;;;;53.33;43.00;;;;;27.78;17.97;102759.81;5063813;27;46731;-78
2022/03/19 11:00:00;;;;;;;;;50.33;42.00;;;;;27.81;17.83;102776.13;5066618;27;45714;-78
2022/03/19 11:02:28;;;;;;;;;54.00;41.33;;;;;27.49;17.76;102704.09;5073138;27;45660;-85
2022/03/19 11:04:57;;;;;;;;;46.33;39.67;;;;;27.77;17.90;102725.31;5066633;27;45716;-81
2022/03/19 11:07:24;;;;;;;;;57.00;43.00;;;;;27.92;17.56;102767.69;5059091;27;46053;-80
2022/03/19 11:09:51;;;;;;;;;55.00;44.00;;;;;27.75;17.55;102759.88;5059962;27;45765;-81
2022/03/19 11:12:21;;;;;;;;;54.67;42.33;;;;;27.95;17.61;102762.19;5072486;27;45777;-80
2022/03/19 11:14:52;;;;;;;;;53.33;41.00;;;;;27.85;17.46;102712.41;5059899;27;45471;-82
2022/03/19 11:17:25;;;;;;;;;50.00;39.00;;;;;27.70;17.62;102670.00;5066545;27;46114;-82
2022/03/19 11:19:52;;;;;;;;;52.67;43.33;;;;;28.23;17.90;102768.84;5064178;27;45502;-81
2022/03/19 11:22:19;;;;;;;;;52.33;42.67;;;;;28.26;17.13;102750.63;5063064;27;45422;-82
2022/03/19 11:24:47;;;;;;;;;57.33;45.67;;;;;28.30;17.70;102755.94;5058886;27;45532;-81
2022/03/19 11:27:14;;;;;;;;;49.00;41.67;;;;;28.46;17.26;102758.31;5061449;27;46181;-80